Time;durP1;ratioP1;P1;durP2;ratioP2;P2;SDS_P1;SDS_P2;PMS_P1;PMS_P2;Temp;Humidity;BMP_temperature;BMP_pressure;BME280_temperature;BME280_humidity;BME280_pressure;Samples;Min_cycle;Max_cycle;Signal;HPM_P1;HPM_P2
2023/05/03 00:00:22;;;;;;;4.72;1.92;;;8.50;99.90;;;;;;5098899;28;20053;-68
2023/05/03 00:02:48;;;;;;;4.07;1.60;;;8.50;99.90;;;;;;5098536;28;20414;-69
2023/05/03 00:05:14;;;;;;;5.93;1.92;;;8.40;99.90;;;;;;5098783;28;20047;-69
2023/05/03 00:07:42;;;;;;;3.47;2.08;;;8.30;99.90;;;;;;5098685;28;20051;-69
2023/05/03 00:10:09;;;;;;;7.10;1.95;;;8.30;99.90;;;;;;5098662;28;20044;-69
2023/05/03 00:12:37;;;;;;;4.07;1.70;;;8.20;99.90;;;;;;5098642;28;20078;-69
2023/05/03 00:15:04;;;;;;;5.88;2.08;;;8.10;99.90;;;;;;5098263;28;20376;-69
2023/05/03 00:17:29;;;;;;;6.72;2.50;;;8.10;99.90;;;;;;5098188;28;20531;-69
2023/05/03 00:19:55;;;;;;;4.78;2.40;;;8.20;99.90;;;;;;5098187;28;20028;-69
2023/05/03 00:22:21;;;;;;;6.18;2.33;;;8.20;99.90;;;;;;5098129;28;20048;-69
2023/05/03 00:24:49;;;;;;;4.63;2.28;;;8.20;99.90;;;;;;5098444;28;20131;-69
2023/05/03 00:27:15;;;;;;;3.53;2.20;;;8.20;99.90;;;;;;5097982;28;20047;-69
2023/05/03 00:29:41;;;;;;;7.88;2.70;;;8.30;99.90;;;;;;5098010;28;20433;-69
2023/05/03 00:32:07;;;;;;;8.00;2.45;;;8.40;99.90;;;;;;5098239;28;20425;-69
2023/05/03 00:34:33;;;;;;;6.00;2.40;;;8.40;99.90;;;;;;5098183;28;20325;-69
2023/05/03 00:36:58;;;;;;;6.03;2.20;;;8.40;99.90;;;;;;5098192;28;20036;-69
2023/05/03 00:39:24;;;;;;;6.97;2.95;;;8.50;99.90;;;;;;5080239;28;20432;-69
2023/05/03 00:41:56;;;;;;;5.47;2.40;;;8.50;99.90;;;;;;5080106;28;20040;-70
2023/05/03 00:44:21;;;;;;;6.07;2.40;;;8.50;99.90;;;;;;5097731;28;20044;-69
2023/05/03 00:46:47;;;;;;;10.43;2.72;;;8.50;99.90;;;;;;5097972;28;20035;-69
2023/05/03 00:49:12;;;;;;;3.20;2.30;;;8.60;99.90;;;;;;5097631;28;20044;-69
2023/05/03 00:51:40;;;;;;;8.18;2.63;;;8.70;99.90;;;;;;5079739;28;20052;-69
2023/05/03 00:54:07;;;;;;;8.55;2.90;;;8.70;99.90;;;;;;5097752;28;20041;-69
2023/05/03 00:56:34;;;;;;;8.63;2.85;;;8.70;99.90;;;;;;5057471;28;20056;-69
2023/05/03 00:59:00;;;;;;;9.13;2.40;;;8.80;99.90;;;;;;5056518;28;20121;-69
2023/05/03 01:01:27;;;;;;;6.88;2.67;;;8.90;99.90;;;;;;5057476;28;20087;-70
2023/05/03 01:03:53;;;;;;;4.90;2.50;;;8.90;99.90;;;;;;5056507;28;20032;-69
2023/05/03 01:06:32;;;;;;;7.45;2.67;;;8.90;99.90;;;;;;5056541;28;20350;-70
2023/05/03 01:09:02;;;;;;;6.78;2.63;;;8.60;99.90;;;;;;5057452;28;20057;-68
2023/05/03 01:11:50;;;;;;;6.72;2.95;;;8.60;99.90;;;;;;5057312;28;20041;-69
2023/05/03 01:14:52;;;;;;;7.15;2.53;;;8.70;99.90;;;;;;5056353;28;20044;-70
2023/05/03 01:17:24;;;;;;;7.38;3.10;;;8.70;99.90;;;;;;5057415;28;20402;-69
2023/05/03 01:19:55;;;;;;;4.07;2.65;;;8.80;99.90;;;;;;5056972;28;20037;-69
2023/05/03 01:22:26;;;;;;;4.68;2.80;;;8.80;99.90;;;;;;5057172;28;20049;-69
2023/05/03 01:25:02;;;;;;;5.70;2.60;;;8.80;99.90;;;;;;5056679;28;20045;-69
2023/05/03 01:27:27;;;;;;;8.60;2.90;;;8.80;99.90;;;;;;5056974;28;20045;-69
2023/05/03 01:29:53;;;;;;;6.20;2.90;;;8.70;99.90;;;;;;5072406;28;20127;-69
2023/05/03 01:32:28;;;;;;;4.20;2.53;;;8.70;99.90;;;;;;5056657;28;20048;-69
2023/05/03 01:35:03;;;;;;;4.07;2.30;;;8.70;99.90;;;;;;5056903;28;20044;-69
2023/05/03 01:37:30;;;;;;;5.28;2.67;;;8.80;99.90;;;;;;5056889;28;20076;-70
2023/05/03 01:40:03;;;;;;;6.95;2.55;;;8.80;99.90;;;;;;5056835;28;20037;-70
2023/05/03 01:42:30;;;;;;;5.70;2.45;;;8.80;99.90;;;;;;5055555;28;20037;-69
2023/05/03 01:44:56;;;;;;;7.90;2.78;;;8.90;99.90;;;;;;5072271;28;20037;-69
2023/05/03 01:47:22;;;;;;;5.97;2.83;;;8.90;99.90;;;;;;5056705;28;20103;-69
2023/05/03 01:49:47;;;;;;;4.75;2.83;;;9.00;99.90;;;;;;5056760;28;20451;-69
2023/05/03 01:52:13;;;;;;;7.80;2.47;;;9.00;99.90;;;;;;5056703;28;20060;-69
2023/05/03 01:54:39;;;;;;;10.07;3.10;;;9.10;99.90;;;;;;5065422;28;20087;-70
2023/05/03 01:57:05;;;;;;;8.50;2.72;;;9.10;99.90;;;;;;5096372;28;20101;-70
2023/05/03 01:59:30;;;;;;;5.38;2.45;;;9.10;99.90;;;;;;5096889;28;20044;-69
2023/05/03 02:01:56;;;;;;;4.60;2.65;;;9.10;99.90;;;;;;5096880;28;20461;-69
2023/05/03 02:04:21;;;;;;;4.78;2.60;;;9.10;99.90;;;;;;5096534;28;20119;-69
2023/05/03 02:06:47;;;;;;;8.60;3.17;;;9.00;99.90;;;;;;5096796;28;20036;-69
2023/05/03 02:09:13;;;;;;;7.65;2.80;;;8.90;99.90;;;;;;5096711;28;20035;-69
2023/05/03 02:11:39;;;;;;;7.65;3.08;;;8.90;99.90;;;;;;5096801;28;20119;-69
2023/05/03 02:14:04;;;;;;;6.55;2.80;;;8.90;99.90;;;;;;5096710;28;20127;-69
2023/05/03 02:16:30;;;;;;;5.72;3.20;;;8.80;99.90;;;;;;5078862;28;20036;-69
2023/05/03 02:18:58;;;;;;;6.53;2.60;;;8.70;99.90;;;;;;5096657;28;20338;-70
2023/05/03 02:21:27;;;;;;;5.88;2.65;;;8.70;99.90;;;;;;5096668;28;20036;-70
2023/05/03 02:23:53;;;;;;;7.63;2.88;;;8.70;99.90;;;;;;5096660;28;20105;-70
2023/05/03 02:26:19;;;;;;;5.35;2.67;;;8.70;99.90;;;;;;5096621;28;20410;-70
2023/05/03 02:28:44;;;;;;;6.90;2.53;;;8.70;99.90;;;;;;5096257;28;20040;-69
2023/05/03 02:31:12;;;;;;;4.45;2.67;;;8.60;99.90;;;;;;5096613;28;20159;-69
2023/05/03 02:33:38;;;;;;;8.52;2.10;;;8.60;99.90;;;;;;5096268;28;20437;-69
2023/05/03 02:36:04;;;;;;;4.18;2.30;;;8.70;99.90;;;;;;5096488;28;20054;-69
2023/05/03 02:38:30;;;;;;;4.07;2.33;;;8.60;99.90;;;;;;5099311;28;20067;-69
2023/05/03 02:40:55;;;;;;;3.42;2.38;;;8.60;99.90;;;;;;5082120;28;20040;-69
2023/05/03 02:43:22;;;;;;;4.50;2.15;;;8.60;99.90;;;;;;5082319;28;20051;-69
2023/05/03 02:45:47;;;;;;;3.88;1.95;;;8.70;99.90;;;;;;5065890;28;20047;-69
2023/05/03 02:48:15;;;;;;;6.15;2.83;;;8.70;99.90;;;;;;5100304;28;20040;-69
2023/05/03 02:50:40;;;;;;;7.03;2.53;;;8.80;99.90;;;;;;5100226;28;20077;-69
2023/05/03 02:53:06;;;;;;;4.93;2.40;;;8.80;99.90;;;;;;5100155;28;20036;-69
2023/05/03 02:55:32;;;;;;;4.40;2.20;;;8.90;99.90;;;;;;5099714;28;20052;-69
2023/05/03 02:57:58;;;;;;;4.93;2.35;;;8.90;99.90;;;;;;5099672;28;20059;-69
2023/05/03 03:00:23;;;;;;;4.50;2.10;;;8.90;99.90;;;;;;5082139;28;20044;-69
2023/05/03 03:02:49;;;;;;;5.70;2.38;;;8.90;99.90;;;;;;5100051;28;20040;-69
2023/05/03 03:05:15;;;;;;;5.63;2.28;;;8.90;99.90;;;;;;5099934;28;20117;-69
2023/05/03 03:07:41;;;;;;;5.05;2.30;;;9.00;99.90;;;;;;5099935;28;20048;-69
2023/05/03 03:10:07;;;;;;;5.35;2.15;;;9.00;99.90;;;;;;5100383;28;20070;-70
2023/05/03 03:12:36;;;;;;;6.18;2.30;;;9.00;99.90;;;;;;5099861;28;20044;-69
2023/05/03 03:15:02;;;;;;;6.53;2.17;;;9.00;99.90;;;;;;5099723;28;20051;-69
2023/05/03 03:17:28;;;;;;;5.65;2.13;;;9.00;99.90;;;;;;5099756;28;20089;-69
2023/05/03 03:19:54;;;;;;;4.32;2.22;;;8.90;99.90;;;;;;5099522;28;20360;-69
2023/05/03 03:22:20;;;;;;;4.57;2.40;;;9.00;99.90;;;;;;5099660;28;20451;-69
2023/05/03 03:24:45;;;;;;;5.13;2.17;;;9.00;99.90;;;;;;5099565;28;20036;-69
2023/05/03 03:27:11;;;;;;;5.40;2.08;;;8.90;99.90;;;;;;5099140;28;20044;-69
2023/05/03 03:29:37;;;;;;;3.72;2.08;;;8.90;99.90;;;;;;5099517;28;20380;-69
2023/05/03 03:32:02;;;;;;;3.90;1.88;;;8.80;99.90;;;;;;5099161;28;20043;-69
2023/05/03 03:34:28;;;;;;;4.43;2.13;;;8.80;99.90;;;;;;5099088;28;20040;-69
2023/05/03 03:36:54;;;;;;;4.45;1.73;;;8.80;99.90;;;;;;5099242;28;20093;-69
2023/05/03 03:39:19;;;;;;;6.72;2.00;;;8.80;99.90;;;;;;5099313;28;20066;-69
2023/05/03 03:41:45;;;;;;;6.40;2.30;;;8.80;99.90;;;;;;5099283;28;20106;-69
2023/05/03 03:44:11;;;;;;;6.75;2.20;;;8.70;99.90;;;;;;5099193;28;20105;-69
2023/05/03 03:46:36;;;;;;;3.08;2.00;;;8.80;99.90;;;;;;5099135;28;20047;-69
2023/05/03 03:49:02;;;;;;;8.10;2.10;;;8.80;99.90;;;;;;5098789;28;20048;-69
2023/05/03 03:51:28;;;;;;;4.00;1.80;;;8.80;99.90;;;;;;5081140;28;20127;-69
2023/05/03 03:53:53;;;;;;;5.05;1.75;;;8.70;99.90;;;;;;5081073;28;20456;-69
2023/05/03 03:56:20;;;;;;;6.72;2.03;;;8.70;99.90;;;;;;5098494;28;20052;-69
2023/05/03 03:58:46;;;;;;;5.97;2.38;;;8.70;99.90;;;;;;5080409;28;20040;-69
2023/05/03 04:01:12;;;;;;;4.80;2.25;;;8.70;99.90;;;;;;5098909;28;20127;-69
2023/05/03 04:03:37;;;;;;;4.60;2.15;;;8.70;99.90;;;;;;5098504;28;20036;-69
2023/05/03 04:06:03;;;;;;;3.83;2.00;;;8.70;99.90;;;;;;5098490;28;20118;-69
2023/05/03 04:08:29;;;;;;;3.78;2.22;;;8.70;99.90;;;;;;5096446;28;20071;-75
2023/05/03 04:10:55;;;;;;;5.97;2.28;;;8.60;99.90;;;;;;5091911;28;20422;-71
2023/05/03 04:13:20;;;;;;;4.68;2.00;;;8.60;99.90;;;;;;5097933;28;20223;-69
2023/05/03 04:15:46;;;;;;;6.40;2.55;;;8.60;99.90;;;;;;5098500;28;20036;-69
2023/05/03 04:18:11;;;;;;;4.28;2.58;;;8.60;99.90;;;;;;5098270;28;20085;-69
2023/05/03 04:20:37;;;;;;;3.50;2.30;;;8.50;99.90;;;;;;5098176;28;20074;-69
2023/05/03 04:23:03;;;;;;;6.25;2.33;;;8.50;99.90;;;;;;5098464;28;20036;-69
2023/05/03 04:25:30;;;;;;;6.60;2.50;;;8.60;99.90;;;;;;5098400;28;20114;-69
2023/05/03 04:27:57;;;;;;;5.47;2.30;;;8.60;99.90;;;;;;5079825;28;20048;-69
2023/05/03 04:30:23;;;;;;;5.15;2.25;;;8.60;99.90;;;;;;5098055;28;20039;-70
2023/05/03 04:32:53;;;;;;;2.38;2.05;;;8.70;99.90;;;;;;5098255;28;20040;-69
2023/05/03 04:35:18;;;;;;;5.85;2.70;;;8.70;99.90;;;;;;5098089;28;20054;-70
2023/05/03 04:37:44;;;;;;;3.90;2.42;;;8.80;99.90;;;;;;5098172;28;20032;-70
2023/05/03 04:40:11;;;;;;;6.82;2.38;;;8.80;99.90;;;;;;5098126;28;20032;-69
2023/05/03 04:42:38;;;;;;;3.65;2.42;;;8.90;99.90;;;;;;5098048;28;20379;-69
2023/05/03 04:45:08;;;;;;;6.00;2.47;;;8.80;99.90;;;;;;5098041;28;20036;-69
2023/05/03 04:47:34;;;;;;;9.02;2.55;;;9.00;99.90;;;;;;5097743;28;20048;-69
2023/05/03 04:50:00;;;;;;;3.40;2.30;;;9.00;99.90;;;;;;5079749;28;20078;-69
2023/05/03 04:52:26;;;;;;;5.82;2.55;;;9.10;99.90;;;;;;5097858;28;20101;-70
2023/05/03 04:54:53;;;;;;;2.75;2.00;;;9.10;99.90;;;;;;5097532;28;20048;-70
2023/05/03 04:57:19;;;;;;;8.27;3.13;;;9.20;99.90;;;;;;5079543;28;20094;-70
2023/05/03 04:59:44;;;;;;;6.88;2.50;;;9.20;99.90;;;;;;5097665;28;20441;-70
2023/05/03 05:02:10;;;;;;;8.32;2.35;;;9.30;99.90;;;;;;5097452;28;20047;-70
2023/05/03 05:04:36;;;;;;;3.55;2.55;;;9.40;99.90;;;;;;5097945;28;20036;-69
2023/05/03 05:07:01;;;;;;;5.78;2.25;;;9.40;99.90;;;;;;5097669;28;20329;-69
2023/05/03 05:09:29;;;;;;;2.83;2.05;;;9.60;99.90;;;;;;5079372;28;20101;-69
2023/05/03 05:11:56;;;;;;;4.03;2.00;;;9.60;99.90;;;;;;5079981;28;20092;-69
2023/05/03 05:14:21;;;;;;;4.18;1.70;;;9.70;99.90;;;;;;5097445;28;20120;-70
2023/05/03 05:16:47;;;;;;;4.03;2.40;;;9.80;99.90;;;;;;5079540;28;20165;-69
2023/05/03 05:19:13;;;;;;;5.32;2.30;;;9.80;99.90;;;;;;5097451;28;20383;-69
2023/05/03 05:21:39;;;;;;;4.43;2.20;;;9.80;99.90;;;;;;5097079;28;20028;-69
2023/05/03 05:24:05;;;;;;;6.53;2.15;;;9.90;99.90;;;;;;5097040;28;20449;-70
2023/05/03 05:26:31;;;;;;;4.55;1.75;;;10.00;99.90;;;;;;5097278;28;20050;-69
2023/05/03 05:28:57;;;;;;;4.07;1.77;;;10.10;99.90;;;;;;5096886;28;20051;-69
2023/05/03 05:31:23;;;;;;;5.22;1.40;;;10.20;99.90;;;;;;5079078;28;20044;-69
2023/05/03 05:33:49;;;;;;;2.30;1.30;;;10.20;99.90;;;;;;5097218;28;20114;-69
2023/05/03 05:36:15;;;;;;;3.97;1.67;;;10.20;99.90;;;;;;5079031;28;20049;-69
2023/05/03 05:38:41;;;;;;;4.80;1.60;;;10.30;99.90;;;;;;5079203;28;20051;-69
2023/05/03 05:41:06;;;;;;;3.92;1.40;;;10.30;99.90;;;;;;5097094;28;20036;-69
2023/05/03 05:43:32;;;;;;;4.28;1.52;;;10.40;99.90;;;;;;5097078;28;20405;-69
2023/05/03 05:45:58;;;;;;;2.90;1.30;;;10.40;99.90;;;;;;5097102;28;20447;-69
2023/05/03 05:48:24;;;;;;;2.17;1.20;;;10.50;99.90;;;;;;5096944;28;20044;-69
2023/05/03 05:50:49;;;;;;;4.40;1.63;;;10.50;99.90;;;;;;5096979;28;20038;-69
2023/05/03 05:53:16;;;;;;;6.07;1.15;;;10.40;99.90;;;;;;5096952;28;20452;-69
2023/05/03 05:55:42;;;;;;;4.60;1.17;;;10.50;99.90;;;;;;5096477;28;20075;-69
2023/05/03 05:58:08;;;;;;;6.13;1.27;;;10.50;99.90;;;;;;5096431;28;20409;-70
2023/05/03 06:00:35;;;;;;;5.50;1.15;;;10.20;99.90;;;;;;5096825;28;20329;-69
2023/05/03 06:03:00;;;;;;;4.63;0.90;;;10.30;99.90;;;;;;5096789;28;20040;-69
2023/05/03 06:05:26;;;;;;;4.82;1.10;;;10.40;99.90;;;;;;5078671;28;20062;-69
2023/05/03 06:07:52;;;;;;;5.43;1.05;;;10.40;99.90;;;;;;5096476;28;20087;-69
2023/05/03 06:10:17;;;;;;;2.35;0.70;;;10.40;99.90;;;;;;5096757;28;20044;-69
2023/05/03 06:12:43;;;;;;;3.38;0.80;;;10.40;99.90;;;;;;5099964;28;20105;-69
2023/05/03 06:15:09;;;;;;;4.15;0.93;;;10.50;99.90;;;;;;5100882;28;20417;-69
2023/05/03 06:17:35;;;;;;;2.58;0.70;;;10.50;99.90;;;;;;5100562;28;20031;-69
2023/05/03 06:20:01;;;;;;;3.38;0.90;;;10.50;99.90;;;;;;5082856;28;20044;-69
2023/05/03 06:22:26;;;;;;;8.50;0.68;;;10.50;99.90;;;;;;5100746;28;20031;-69
2023/05/03 06:24:54;;;;;;;6.32;0.98;;;10.50;99.90;;;;;;5100394;28;20101;-69
2023/05/03 06:27:20;;;;;;;1.42;0.50;;;10.40;99.90;;;;;;5100295;28;20538;-69
2023/05/03 06:29:46;;;;;;;1.83;0.60;;;10.50;99.90;;;;;;5100686;28;20406;-69
2023/05/03 06:32:12;;;;;;;2.92;0.90;;;10.60;99.90;;;;;;5100570;28;20036;-70
2023/05/03 06:34:38;;;;;;;4.38;0.93;;;10.80;99.90;;;;;;5100187;28;20032;-69
2023/05/03 06:37:03;;;;;;;7.32;0.80;;;11.00;99.90;;;;;;5100537;28;20121;-69
2023/05/03 06:39:29;;;;;;;5.13;1.00;;;11.20;99.90;;;;;;5100465;28;20071;-69
2023/05/03 06:41:55;;;;;;;4.43;0.63;;;11.20;99.90;;;;;;5100152;28;20047;-69
2023/05/03 06:44:21;;;;;;;4.60;0.60;;;11.30;99.90;;;;;;5100348;28;20040;-69
2023/05/03 06:46:47;;;;;;;3.47;0.60;;;11.20;99.90;;;;;;5100378;28;20047;-69
2023/05/03 06:49:21;;;;;;;2.05;0.60;;;11.30;99.90;;;;;;5100371;28;20050;-69
2023/05/03 06:51:47;;;;;;;2.75;0.57;;;11.40;99.90;;;;;;5100323;28;20396;-69
2023/05/03 06:54:14;;;;;;;8.80;0.80;;;11.50;99.90;;;;;;5099985;28;20332;-69
2023/05/03 06:56:39;;;;;;;8.70;0.73;;;11.50;99.90;;;;;;5100139;28;20048;-69
2023/05/03 06:59:07;;;;;;;3.15;0.80;;;11.40;99.90;;;;;;5099459;28;20146;-69
2023/05/03 07:01:33;;;;;;;2.67;0.60;;;11.40;99.90;;;;;;5100051;28;20040;-69
2023/05/03 07:03:59;;;;;;;3.00;0.60;;;11.60;99.90;;;;;;5100055;28;20078;-69
2023/05/03 07:06:25;;;;;;;4.72;0.70;;;11.50;99.90;;;;;;5099963;28;20085;-69
2023/05/03 07:08:52;;;;;;;1.55;0.40;;;11.60;99.90;;;;;;5064804;28;20044;-69
2023/05/03 07:11:24;;;;;;;3.00;0.43;;;11.80;99.90;;;;;;5098387;28;20378;-69
2023/05/03 07:13:51;;;;;;;3.00;0.52;;;11.80;99.90;;;;;;5099861;28;20119;-69
2023/05/03 07:16:17;;;;;;;2.08;0.70;;;11.80;99.90;;;;;;5099754;28;20078;-69
2023/05/03 07:18:43;;;;;;;5.22;0.50;;;12.00;99.90;;;;;;5099744;28;20043;-69
2023/05/03 07:21:09;;;;;;;4.25;0.50;;;11.80;99.90;;;;;;5099724;28;20093;-69
2023/05/03 07:23:35;;;;;;;4.25;0.57;;;11.70;99.90;;;;;;5098958;28;20432;-65
2023/05/03 07:26:01;;;;;;;1.98;0.68;;;11.80;99.90;;;;;;5099626;28;20059;-66
2023/05/03 07:28:26;;;;;;;1.92;0.52;;;12.00;99.90;;;;;;5099169;28;20169;-67
2023/05/03 07:30:52;;;;;;;5.10;0.60;;;12.00;99.90;;;;;;5099558;28;20047;-66
2023/05/03 07:33:18;;;;;;;4.00;1.25;;;12.00;99.90;;;;;;5099507;28;20044;-66
2023/05/03 07:35:47;;;;;;;2.60;0.50;;;12.10;99.90;;;;;;5081539;28;20040;-66
2023/05/03 07:38:12;;;;;;;2.63;0.43;;;12.10;99.90;;;;;;5099382;28;20035;-66
2023/05/03 07:40:40;;;;;;;4.10;0.65;;;12.10;99.90;;;;;;5081359;28;20326;-66
2023/05/03 07:43:08;;;;;;;4.28;0.70;;;12.20;99.90;;;;;;5099300;28;20035;-66
2023/05/03 07:45:35;;;;;;;3.72;0.70;;;12.30;99.90;;;;;;5099232;28;20096;-66
2023/05/03 07:48:00;;;;;;;5.97;0.80;;;12.30;99.90;;;;;;5099183;28;20118;-66
2023/05/03 07:50:26;;;;;;;2.70;0.60;;;12.10;99.90;;;;;;5099123;28;20119;-66
2023/05/03 07:52:52;;;;;;;3.15;0.43;;;12.20;99.90;;;;;;5098876;28;20421;-66
2023/05/03 07:55:20;;;;;;;3.05;0.77;;;12.30;99.90;;;;;;5098752;28;20127;-66
2023/05/03 07:57:46;;;;;;;3.63;0.60;;;12.40;99.90;;;;;;5098580;28;20058;-67
2023/05/03 08:00:12;;;;;;;3.22;0.60;;;12.30;99.90;;;;;;5098928;28;20431;-66
2023/05/03 08:02:38;;;;;;;2.42;0.60;;;12.30;99.90;;;;;;5098899;28;20032;-67
2023/05/03 08:05:05;;;;;;;1.42;0.40;;;12.40;99.90;;;;;;5081247;28;20452;-67
2023/05/03 08:07:31;;;;;;;3.10;0.50;;;12.50;99.90;;;;;;5099084;28;20051;-67
2023/05/03 08:10:01;;;;;;;7.15;0.70;;;12.50;99.90;;;;;;5098779;28;20040;-67
2023/05/03 08:12:27;;;;;;;5.95;0.68;;;12.50;99.90;;;;;;5081222;28;20044;-67
2023/05/03 08:14:54;;;;;;;4.97;0.75;;;12.30;99.90;;;;;;5098616;28;20101;-67
2023/05/03 08:17:21;;;;;;;1.27;0.50;;;12.40;99.90;;;;;;5098345;28;20113;-67
2023/05/03 08:19:47;;;;;;;3.35;0.80;;;12.60;99.90;;;;;;5098600;28;20078;-67
2023/05/03 08:22:13;;;;;;;3.30;0.85;;;12.50;99.90;;;;;;5098524;28;20433;-67
2023/05/03 08:24:39;;;;;;;4.22;0.57;;;12.40;99.90;;;;;;5080636;28;20118;-67
2023/05/03 08:27:06;;;;;;;5.28;0.80;;;12.40;99.90;;;;;;5098142;28;20132;-67
2023/05/03 08:29:33;;;;;;;3.97;0.50;;;12.40;99.90;;;;;;5097974;28;20051;-67
2023/05/03 08:31:58;;;;;;;3.63;0.70;;;12.40;99.90;;;;;;5098360;28;20067;-67
2023/05/03 08:34:24;;;;;;;2.38;0.43;;;12.60;99.90;;;;;;5097622;28;20067;-67
2023/05/03 08:36:50;;;;;;;2.08;0.52;;;12.70;99.90;;;;;;5097507;28;20467;-67
2023/05/03 08:39:17;;;;;;;6.40;0.90;;;12.80;99.90;;;;;;5080362;28;20040;-67
2023/05/03 08:41:43;;;;;;;4.80;0.70;;;12.70;99.90;;;;;;5098190;28;20427;-67
2023/05/03 08:44:11;;;;;;;2.28;0.98;;;12.40;99.90;;;;;;5098108;28;20068;-68
2023/05/03 08:46:37;;;;;;;2.13;0.63;;;12.20;99.90;;;;;;5079859;28;20047;-67
2023/05/03 08:49:05;;;;;;;4.20;0.80;;;12.40;99.90;;;;;;5097676;28;20093;-67
2023/05/03 08:51:33;;;;;;;3.45;0.90;;;12.60;99.90;;;;;;5097952;28;20048;-68
2023/05/03 08:53:59;;;;;;;5.95;0.80;;;12.60;99.90;;;;;;5097928;28;20055;-67
2023/05/03 08:56:32;;;;;;;2.53;0.80;;;12.60;99.90;;;;;;5097865;28;20052;-67
2023/05/03 08:59:06;;;;;;;3.60;0.80;;;12.70;99.90;;;;;;5097507;28;20086;-68
2023/05/03 09:01:32;;;;;;;3.17;0.93;;;12.60;99.90;;;;;;5097810;28;20050;-68
2023/05/03 09:03:57;;;;;;;5.75;0.93;;;12.70;99.90;;;;;;5079753;28;20035;-67
2023/05/03 09:06:27;;;;;;;3.10;0.90;;;12.80;99.90;;;;;;5079764;28;20055;-68
2023/05/03 09:08:53;;;;;;;2.85;0.70;;;13.00;99.90;;;;;;5097662;28;20032;-68
2023/05/03 09:11:30;;;;;;;6.40;0.98;;;12.80;99.90;;;;;;5097625;28;20123;-67
2023/05/03 09:14:17;;;;;;;4.25;0.70;;;12.90;99.90;;;;;;5097597;28;20043;-66
2023/05/03 09:16:44;;;;;;;3.13;0.82;;;13.10;99.90;;;;;;5097554;28;20115;-67
2023/05/03 09:19:11;;;;;;;4.53;0.90;;;12.90;99.90;;;;;;5097467;28;20047;-67
2023/05/03 09:21:38;;;;;;;2.35;0.68;;;12.70;99.90;;;;;;5097269;28;20036;-67
2023/05/03 09:24:20;;;;;;;3.95;0.80;;;12.80;99.90;;;;;;5097402;28;20036;-67
2023/05/03 09:26:49;;;;;;;3.22;0.80;;;12.90;99.90;;;;;;5097403;28;20036;-67
2023/05/03 09:29:36;;;;;;;3.92;0.77;;;13.00;99.90;;;;;;5096857;28;20079;-67
2023/05/03 09:32:04;;;;;;;3.38;0.70;;;13.20;99.90;;;;;;5097042;28;20055;-67
2023/05/03 09:34:31;;;;;;;3.08;0.90;;;13.10;99.90;;;;;;5097282;28;20059;-67
2023/05/03 09:36:56;;;;;;;5.97;1.20;;;13.30;99.90;;;;;;5078919;28;20153;-66
2023/05/03 09:39:22;;;;;;;5.65;1.10;;;13.30;99.90;;;;;;5097130;28;20170;-67
2023/05/03 09:41:48;;;;;;;2.00;0.65;;;13.20;99.90;;;;;;5097134;28;20043;-66
2023/05/03 09:44:15;;;;;;;3.60;0.70;;;13.30;99.90;;;;;;5079244;28;20036;-67
2023/05/03 09:47:03;;;;;;;4.68;0.93;;;13.50;99.90;;;;;;5096401;28;20486;-67
2023/05/03 09:49:31;;;;;;;2.30;0.68;;;13.50;99.90;;;;;;5097098;28;20123;-67
2023/05/03 09:51:58;;;;;;;2.22;0.65;;;13.70;99.90;;;;;;5096736;28;20043;-67
2023/05/03 09:54:24;;;;;;;6.38;1.23;;;13.70;99.90;;;;;;5096492;28;20107;-67
2023/05/03 09:56:54;;;;;;;2.53;0.82;;;13.90;99.90;;;;;;5096552;28;20345;-67
2023/05/03 09:59:20;;;;;;;6.18;0.93;;;14.00;99.90;;;;;;5096508;28;20044;-67
2023/05/03 10:01:46;;;;;;;3.90;1.00;;;14.00;99.90;;;;;;5096835;28;20040;-67
2023/05/03 10:04:15;;;;;;;3.50;0.93;;;13.80;99.90;;;;;;5089802;28;20119;-67
2023/05/03 10:06:41;;;;;;;5.95;0.82;;;13.80;99.90;;;;;;5087197;28;20037;-67
2023/05/03 10:09:15;;;;;;;2.67;0.90;;;13.80;99.90;;;;;;5078810;28;20028;-67
2023/05/03 10:11:47;;;;;;;2.35;0.70;;;13.80;99.90;;;;;;5081613;28;20397;-66
2023/05/03 10:14:13;;;;;;;2.95;0.70;;;13.90;99.90;;;;;;5064596;28;20047;-67
2023/05/03 10:16:43;;;;;;;3.60;0.70;;;14.00;99.90;;;;;;5057133;28;20102;-66
2023/05/03 10:19:14;;;;;;;4.05;0.80;;;14.00;99.90;;;;;;5076613;28;20039;-66
2023/05/03 10:22:06;;;;;;;3.67;1.00;;;14.00;99.90;;;;;;5058875;28;20291;-66
2023/05/03 10:24:33;;;;;;;4.28;1.05;;;13.90;99.90;;;;;;5058510;28;20044;-66
2023/05/03 10:26:59;;;;;;;4.68;1.20;;;13.80;99.90;;;;;;5076573;28;20393;-66
2023/05/03 10:29:34;;;;;;;1.95;0.80;;;13.90;99.90;;;;;;5076147;28;20287;-66
2023/05/03 10:32:04;;;;;;;4.28;0.93;;;14.00;99.90;;;;;;5076226;28;20045;-67
2023/05/03 10:34:31;;;;;;;3.55;0.70;;;13.90;99.90;;;;;;5076447;28;20321;-66
2023/05/03 10:37:01;;;;;;;2.55;0.95;;;14.00;99.90;;;;;;5076050;28;20040;-67
2023/05/03 10:39:28;;;;;;;3.22;0.90;;;14.20;99.90;;;;;;5076411;28;20028;-66
2023/05/03 10:42:07;;;;;;;7.90;0.90;;;14.20;99.90;;;;;;5076088;28;20112;-67
2023/05/03 10:44:52;;;;;;;2.35;1.10;;;14.00;99.90;;;;;;5076343;28;20116;-67
2023/05/03 10:47:23;;;;;;;3.63;1.23;;;14.20;99.90;;;;;;5076080;28;20313;-66
2023/05/03 10:50:19;;;;;;;2.75;0.90;;;14.40;99.90;;;;;;5076040;28;20488;-67
2023/05/03 10:52:46;;;;;;;3.63;1.10;;;14.40;99.90;;;;;;5058792;28;20044;-67
2023/05/03 10:55:19;;;;;;;4.70;1.50;;;14.60;99.90;;;;;;5075663;28;20124;-66
2023/05/03 10:57:47;;;;;;;2.97;0.82;;;14.60;99.90;;;;;;5075904;28;20068;-66
2023/05/03 11:00:22;;;;;;;7.47;0.80;;;14.80;99.90;;;;;;5079900;28;20068;-67
2023/05/03 11:03:28;;;;;;;5.78;1.00;;;14.50;99.90;;;;;;5079892;28;20063;-67
2023/05/03 11:05:54;;;;;;;5.03;0.93;;;14.50;99.90;;;;;;5079791;28;20036;-69
2023/05/03 11:08:21;;;;;;;2.97;0.77;;;14.60;99.90;;;;;;5079730;28;20402;-68
2023/05/03 11:10:59;;;;;;;5.47;1.30;;;14.80;99.90;;;;;;5079697;28;20032;-68
2023/05/03 11:13:26;;;;;;;7.93;0.98;;;14.30;99.90;;;;;;5062035;28;20043;-67
2023/05/03 11:15:55;;;;;;;3.65;1.00;;;14.10;99.90;;;;;;5079228;28;20032;-68
2023/05/03 11:18:21;;;;;;;4.45;1.10;;;13.80;99.90;;;;;;5079269;28;20051;-67
2023/05/03 11:20:48;;;;;;;4.25;0.90;;;14.00;99.90;;;;;;5079539;28;20306;-67
2023/05/03 11:23:14;;;;;;;5.30;1.10;;;14.00;99.90;;;;;;5079220;28;20433;-67
2023/05/03 11:25:40;;;;;;;3.60;1.00;;;14.00;99.90;;;;;;5061522;28;20043;-67
2023/05/03 11:28:06;;;;;;;3.65;0.90;;;14.10;99.90;;;;;;5079136;28;20036;-65
2023/05/03 11:30:33;;;;;;;4.90;0.90;;;14.40;99.90;;;;;;5079337;28;20040;-67
2023/05/03 11:32:59;;;;;;;3.40;0.80;;;14.70;99.90;;;;;;5079031;28;20426;-67
2023/05/03 11:35:28;;;;;;;2.78;0.70;;;15.10;99.90;;;;;;5079211;28;20036;-67
2023/05/03 11:37:54;;;;;;;3.50;0.80;;;15.80;99.90;;;;;;5078881;28;20036;-68
2023/05/03 11:40:20;;;;;;;4.25;0.80;;;16.00;99.90;;;;;;5079183;28;20033;-68
2023/05/03 11:42:57;;;;;;;4.47;0.90;;;16.30;99.90;;;;;;5079123;28;20039;-67
2023/05/03 11:45:31;;;;;;;3.65;0.85;;;16.70;99.90;;;;;;5061362;28;20052;-67
2023/05/03 11:47:58;;;;;;;4.38;0.80;;;16.50;99.90;;;;;;5078781;28;20045;-67
2023/05/03 11:50:54;;;;;;;7.03;1.15;;;16.20;99.90;;;;;;5078761;28;20412;-67
2023/05/03 11:53:23;;;;;;;5.70;1.42;;;16.40;99.90;;;;;;5079013;28;20037;-67
2023/05/03 11:55:52;;;;;;;3.80;0.98;;;16.80;99.90;;;;;;5078355;28;20056;-67
2023/05/03 11:58:20;;;;;;;4.75;1.10;;;16.70;99.90;;;;;;5078463;28;20337;-67
2023/05/03 12:00:48;;;;;;;6.82;0.93;;;16.40;99.90;;;;;;5078795;28;20111;-67
2023/05/03 12:03:31;;;;;;;4.88;1.27;;;16.20;99.90;;;;;;5060734;28;20525;-67
2023/05/03 12:05:58;;;;;;;7.43;1.05;;;16.10;99.90;;;;;;5060916;28;20040;-67
2023/05/03 12:08:31;;;;;;;3.83;1.00;;;16.20;99.90;;;;;;5078656;28;20317;-67
2023/05/03 12:10:59;;;;;;;1.92;0.85;;;16.50;99.90;;;;;;5078059;28;20041;-67
2023/05/03 12:13:31;;;;;;;3.80;1.20;;;17.00;99.90;;;;;;5078299;28;20072;-67
2023/05/03 12:16:01;;;;;;;5.05;1.05;;;17.40;99.90;;;;;;5078117;28;20139;-68
2023/05/03 12:18:27;;;;;;;2.35;0.93;;;17.30;99.90;;;;;;5078503;28;20352;-67
2023/05/03 12:20:57;;;;;;;2.55;0.90;;;17.10;99.90;;;;;;5078192;28;20137;-67
2023/05/03 12:23:23;;;;;;;4.85;1.10;;;16.90;99.90;;;;;;5078354;28;20032;-67
2023/05/03 12:25:50;;;;;;;6.40;1.30;;;16.50;99.90;;;;;;5078279;28;20048;-67
2023/05/03 12:28:17;;;;;;;4.68;1.30;;;16.30;99.90;;;;;;5077890;28;20048;-67
2023/05/03 12:30:42;;;;;;;4.32;1.10;;;16.10;99.90;;;;;;5078227;28;20397;-67
2023/05/03 12:33:09;;;;;;;4.15;1.33;;;16.00;99.90;;;;;;5077845;28;20086;-67
2023/05/03 12:35:35;;;;;;;3.47;1.38;;;16.30;99.90;;;;;;5078033;28;20032;-67
2023/05/03 12:38:05;;;;;;;5.43;1.25;;;16.70;99.90;;;;;;5078077;28;20036;-67
2023/05/03 12:40:31;;;;;;;7.10;1.27;;;17.10;99.90;;;;;;5078304;28;20043;-67
2023/05/03 12:42:56;;;;;;;2.65;1.05;;;17.40;99.90;;;;;;5078023;28;20028;-67
2023/05/03 12:45:22;;;;;;;5.10;1.20;;;17.30;99.90;;;;;;5077917;28;20467;-67
2023/05/03 12:47:48;;;;;;;4.75;1.38;;;17.20;99.90;;;;;;5059947;28;20064;-71
2023/05/03 12:50:14;;;;;;;3.40;1.20;;;17.20;99.90;;;;;;5077834;28;20111;-67
2023/05/03 12:52:39;;;;;;;4.93;1.50;;;17.10;99.90;;;;;;5077811;28;20432;-67